Time;durP1;ratioP1;P1;durP2;ratioP2;P2;SDS_P1;SDS_P2;PMS_P1;PMS_P2;Temp;Humidity;BMP_temperature;BMP_pressure;BME280_temperature;BME280_humidity;BME280_pressure;Samples;Min_cycle;Max_cycle;Signal;HPM_P1;HPM_P2
2023/02/20 00:01:18;;;;;;;2.23;1.73;;;9.50;98.00;;;;;;5071899;28;20823;-70
2023/02/20 00:03:46;;;;;;;3.80;2.20;;;9.50;98.00;;;;;;5073265;28;20519;-69
2023/02/20 00:06:14;;;;;;;3.10;2.13;;;9.40;98.00;;;;;;5073274;28;20998;-70
2023/02/20 00:08:44;;;;;;;3.97;2.17;;;9.50;98.00;;;;;;5073983;28;20456;-71
2023/02/20 00:11:11;;;;;;;2.30;1.47;;;9.50;98.00;;;;;;5073182;28;20468;-70
2023/02/20 00:13:38;;;;;;;3.20;1.83;;;9.50;98.00;;;;;;5073042;28;20471;-69
2023/02/20 00:16:06;;;;;;;2.70;1.50;;;9.40;98.00;;;;;;5072562;28;20460;-70
2023/02/20 00:18:33;;;;;;;4.07;2.40;;;9.50;98.00;;;;;;5072701;28;20465;-70
2023/02/20 00:21:00;;;;;;;3.40;2.10;;;9.50;98.00;;;;;;5071365;28;20463;-69
2023/02/20 00:23:32;;;;;;;3.07;2.30;;;9.40;98.00;;;;;;5072564;28;20861;-69
2023/02/20 00:26:00;;;;;;;2.63;1.80;;;9.40;98.00;;;;;;5071305;28;20453;-70
2023/02/20 00:28:28;;;;;;;2.73;1.70;;;9.40;98.00;;;;;;5071244;28;20468;-69
2023/02/20 00:30:55;;;;;;;3.33;2.00;;;9.40;98.00;;;;;;5072314;28;20942;-70
2023/02/20 00:33:22;;;;;;;2.43;1.60;;;9.40;98.00;;;;;;5072343;28;20486;-70
2023/02/20 00:35:49;;;;;;;8.23;2.27;;;9.40;98.00;;;;;;5072233;28;20826;-70
2023/02/20 00:38:18;;;;;;;2.47;1.60;;;9.40;98.00;;;;;;5072168;28;20464;-70
2023/02/20 00:40:46;;;;;;;4.23;1.80;;;9.40;98.00;;;;;;5072345;28;20464;-69
2023/02/20 00:43:13;;;;;;;2.20;1.60;;;9.40;98.00;;;;;;5072064;28;20969;-69
2023/02/20 00:45:40;;;;;;;5.80;2.03;;;9.30;98.00;;;;;;5071994;28;20456;-69
2023/02/20 00:48:08;;;;;;;3.13;1.90;;;9.30;98.00;;;;;;5072175;28;20805;-70
2023/02/20 00:50:35;;;;;;;2.40;1.70;;;9.30;98.00;;;;;;5071939;28;20884;-70
2023/02/20 00:53:03;;;;;;;2.23;1.77;;;9.30;98.00;;;;;;5070754;28;20477;-69
2023/02/20 00:55:30;;;;;;;10.90;2.10;;;9.30;98.00;;;;;;5071920;28;20453;-69
2023/02/20 00:57:59;;;;;;;5.43;1.70;;;9.30;98.00;;;;;;5071978;28;20469;-69
2023/02/20 01:00:28;;;;;;;3.43;1.87;;;9.30;98.00;;;;;;5072064;28;20455;-70
2023/02/20 01:02:56;;;;;;;3.03;1.60;;;9.30;98.00;;;;;;5072048;28;20466;-69
2023/02/20 01:05:23;;;;;;;3.77;1.73;;;9.30;98.00;;;;;;5071814;28;20459;-70
2023/02/20 01:07:50;;;;;;;2.90;1.63;;;9.30;98.00;;;;;;5071972;28;21052;-69
2023/02/20 01:10:18;;;;;;;6.73;2.17;;;9.30;98.00;;;;;;5071652;28;20541;-72
2023/02/20 01:12:45;;;;;;;4.20;2.00;;;9.30;98.00;;;;;;5071555;28;20846;-70
2023/02/20 01:15:16;;;;;;;5.80;2.33;;;9.30;98.00;;;;;;5071368;28;20950;-69
2023/02/20 01:17:44;;;;;;;3.67;1.57;;;9.20;98.00;;;;;;5071724;28;20514;-70
2023/02/20 01:20:12;;;;;;;1.60;1.30;;;9.20;98.00;;;;;;5071601;28;20456;-69
2023/02/20 01:22:40;;;;;;;2.17;1.70;;;9.20;98.00;;;;;;5071491;28;20445;-70
2023/02/20 01:25:07;;;;;;;4.73;2.03;;;9.20;98.00;;;;;;5071524;28;20784;-70
2023/02/20 01:27:36;;;;;;;5.50;2.07;;;9.10;98.00;;;;;;5071547;28;20452;-70
2023/02/20 01:30:03;;;;;;;4.37;2.00;;;9.10;98.00;;;;;;5071315;28;20467;-70
2023/02/20 01:32:32;;;;;;;2.33;1.80;;;9.10;98.00;;;;;;5070223;28;20585;-69
2023/02/20 01:34:59;;;;;;;3.13;1.90;;;8.90;98.00;;;;;;5071307;28;20492;-69
2023/02/20 01:37:26;;;;;;;2.40;1.70;;;8.90;98.00;;;;;;5071019;28;20808;-70
2023/02/20 01:39:54;;;;;;;2.47;1.50;;;8.80;98.00;;;;;;5071236;28;20462;-70
2023/02/20 01:42:23;;;;;;;2.40;1.63;;;8.80;98.00;;;;;;5071183;28;20468;-70
2023/02/20 01:44:51;;;;;;;3.97;2.23;;;8.80;98.00;;;;;;5070148;28;20511;-70
2023/02/20 01:47:21;;;;;;;3.57;2.57;;;8.80;98.00;;;;;;5071214;28;20963;-69
2023/02/20 01:49:54;;;;;;;4.77;1.70;;;8.80;98.00;;;;;;5071069;28;20449;-70
2023/02/20 01:52:25;;;;;;;8.70;1.90;;;8.70;98.00;;;;;;5071131;28;20843;-70
2023/02/20 01:54:59;;;;;;;2.47;1.97;;;8.70;98.00;;;;;;5071192;28;20464;-69
2023/02/20 01:57:30;;;;;;;3.40;1.80;;;8.70;98.00;;;;;;5071232;28;20467;-70
2023/02/20 02:00:02;;;;;;;4.83;1.90;;;8.80;98.00;;;;;;5071224;28;20467;-71
2023/02/20 02:02:33;;;;;;;1.93;1.80;;;8.70;98.00;;;;;;5071341;28;20542;-69
2023/02/20 02:05:02;;;;;;;2.20;1.70;;;8.70;98.00;;;;;;5071043;28;20463;-70
2023/02/20 02:07:32;;;;;;;2.30;2.00;;;8.70;98.00;;;;;;5070702;28;20505;-69
2023/02/20 02:10:04;;;;;;;2.80;1.97;;;8.60;98.00;;;;;;5070862;28;20489;-70
2023/02/20 02:12:32;;;;;;;2.83;1.50;;;8.60;98.00;;;;;;5071019;28;20492;-70
2023/02/20 02:14:59;;;;;;;2.87;1.77;;;8.60;98.00;;;;;;5070742;28;20453;-69
2023/02/20 02:17:45;;;;;;;1.50;1.40;;;8.50;98.00;;;;;;5071121;28;20460;-70
2023/02/20 02:20:41;;;;;;;10.20;2.10;;;8.50;98.00;;;;;;5071059;28;20460;-69
2023/02/20 02:23:45;;;;;;;2.57;1.93;;;8.50;98.00;;;;;;5070763;28;20815;-70
2023/02/20 02:26:30;;;;;;;4.10;1.90;;;8.50;98.00;;;;;;5070550;28;20460;-70
2023/02/20 02:29:45;;;;;;;2.53;1.63;;;8.40;98.00;;;;;;5070746;28;20471;-70
2023/02/20 02:32:40;;;;;;;1.80;1.60;;;8.50;98.00;;;;;;5028116;28;20743;-70
2023/02/20 02:35:44;;;;;;;2.10;1.40;;;8.50;98.00;;;;;;5010371;28;20462;-70
2023/02/20 02:38:21;;;;;;;1.60;1.40;;;8.60;98.00;;;;;;5070192;28;20460;-70
2023/02/20 02:41:08;;;;;;;4.90;1.40;;;8.70;98.00;;;;;;5070703;28;20455;-69
2023/02/20 02:43:48;;;;;;;2.27;1.60;;;8.70;98.00;;;;;;5070718;28;20462;-70
2023/02/20 02:46:21;;;;;;;3.53;1.97;;;8.80;98.00;;;;;;5070578;28;20456;-69
2023/02/20 02:48:57;;;;;;;2.43;1.60;;;8.80;98.00;;;;;;5072135;28;20535;-69
2023/02/20 02:51:29;;;;;;;3.20;2.00;;;8.90;98.00;;;;;;5074129;28;20477;-69
2023/02/20 02:54:08;;;;;;;1.93;1.50;;;8.80;98.00;;;;;;5074311;28;20483;-70
2023/02/20 02:56:36;;;;;;;4.77;2.00;;;8.60;98.00;;;;;;5074198;28;20454;-69
2023/02/20 02:59:06;;;;;;;2.53;1.50;;;8.50;98.00;;;;;;5073114;28;20490;-69
2023/02/20 03:01:37;;;;;;;3.10;1.73;;;8.30;98.00;;;;;;5074273;28;20475;-70
2023/02/20 03:04:07;;;;;;;2.33;1.53;;;8.30;98.00;;;;;;5074085;28;20460;-70
2023/02/20 03:06:38;;;;;;;1.87;1.60;;;8.30;98.00;;;;;;5073898;28;20539;-70
2023/02/20 03:09:12;;;;;;;2.83;1.50;;;8.40;98.00;;;;;;5073971;28;20470;-70
2023/02/20 03:11:41;;;;;;;3.77;1.73;;;8.40;98.00;;;;;;5073839;28;20961;-69
2023/02/20 03:17:01;;;;;;;1.73;1.37;;;8.40;98.00;;;;;;5073824;28;20917;-70
2023/02/20 03:19:36;;;;;;;3.53;1.60;;;8.50;98.00;;;;;;5073721;28;20953;-70
2023/02/20 03:22:10;;;;;;;2.23;1.63;;;8.50;98.00;;;;;;5073681;28;20474;-70
2023/02/20 03:24:53;;;;;;;1.60;1.33;;;8.50;98.00;;;;;;5073683;28;20456;-70
2023/02/20 03:27:24;;;;;;;2.53;1.63;;;8.50;98.00;;;;;;5073629;28;20922;-71
2023/02/20 03:29:54;;;;;;;4.50;1.93;;;8.60;98.00;;;;;;5073477;28;20492;-70
2023/02/20 03:43:31;;;;;;;2.70;1.50;;;8.60;98.00;;;;;;5073466;28;20801;-69
2023/02/20 03:46:03;;;;;;;12.70;1.60;;;8.60;98.00;;;;;;5073128;28;20966;-70
2023/02/20 03:48:35;;;;;;;3.73;1.80;;;8.60;98.00;;;;;;5073629;28;20461;-70
2023/02/20 03:51:02;;;;;;;7.53;1.60;;;8.70;98.00;;;;;;5070530;28;20507;-70
2023/02/20 03:53:30;;;;;;;2.67;1.90;;;8.60;98.00;;;;;;5073371;28;20851;-71
2023/02/20 03:56:04;;;;;;;2.43;1.50;;;8.60;98.00;;;;;;5073380;28;20457;-70
2023/02/20 03:58:34;;;;;;;3.10;1.80;;;8.60;98.00;;;;;;5072128;28;20458;-70
2023/02/20 04:01:04;;;;;;;4.33;2.43;;;8.60;98.00;;;;;;5071549;28;20465;-70
2023/02/20 04:03:38;;;;;;;1.87;1.50;;;8.70;98.00;;;;;;5073146;28;20456;-70
2023/02/20 04:06:08;;;;;;;2.80;1.80;;;8.70;98.00;;;;;;5072884;28;20869;-69
2023/02/20 04:08:38;;;;;;;2.70;1.60;;;8.70;98.00;;;;;;5072882;28;20467;-69
2023/02/20 04:11:18;;;;;;;3.67;1.87;;;8.70;98.00;;;;;;5072816;28;20495;-69
2023/02/20 04:13:49;;;;;;;2.77;1.60;;;8.70;98.00;;;;;;5072154;28;20480;-70
2023/02/20 04:16:20;;;;;;;3.50;1.97;;;8.70;98.00;;;;;;5072942;28;20514;-69
2023/02/20 04:18:49;;;;;;;1.90;1.50;;;8.70;98.00;;;;;;5072665;28;20462;-70
2023/02/20 04:21:21;;;;;;;2.97;1.53;;;8.70;98.00;;;;;;5072491;28;20548;-69
2023/02/20 04:23:57;;;;;;;1.70;1.50;;;8.60;98.00;;;;;;5072557;28;20882;-71
2023/02/20 04:26:26;;;;;;;2.67;1.67;;;8.60;98.00;;;;;;5072452;28;21018;-70
2023/02/20 04:28:55;;;;;;;2.30;1.50;;;8.60;98.00;;;;;;5072390;28;20459;-70
2023/02/20 04:31:23;;;;;;;1.50;1.40;;;8.60;98.00;;;;;;5072288;28;20458;-70
2023/02/20 04:33:50;;;;;;;3.67;1.90;;;8.60;98.00;;;;;;5072329;28;20507;-69
2023/02/20 04:36:17;;;;;;;2.43;1.57;;;8.60;98.00;;;;;;5070806;28;20452;-70
2023/02/20 04:38:47;;;;;;;2.40;1.80;;;8.60;98.00;;;;;;5072118;28;20966;-70
2023/02/20 04:41:15;;;;;;;2.47;1.80;;;8.60;98.00;;;;;;5072092;28;20981;-69
2023/02/20 04:43:43;;;;;;;3.50;1.90;;;8.60;98.00;;;;;;5072004;28;20465;-70
2023/02/20 04:46:10;;;;;;;2.23;1.70;;;8.70;98.00;;;;;;5072147;28;20822;-69
2023/02/20 04:48:37;;;;;;;2.47;1.73;;;8.60;98.00;;;;;;5072189;28;20460;-69
2023/02/20 04:51:05;;;;;;;3.13;2.00;;;8.50;98.00;;;;;;5072035;28;20471;-69
2023/02/20 04:53:32;;;;;;;2.33;1.77;;;8.50;98.00;;;;;;5072062;28;20488;-69
2023/02/20 04:56:00;;;;;;;3.20;2.40;;;8.40;98.00;;;;;;5072009;28;20468;-70
2023/02/20 04:58:27;;;;;;;2.40;2.03;;;8.40;98.00;;;;;;5070854;28;20957;-70
2023/02/20 05:00:55;;;;;;;1.87;1.57;;;8.30;98.00;;;;;;5072027;28;20467;-70
2023/02/20 05:03:22;;;;;;;2.10;1.67;;;8.30;98.00;;;;;;5071743;28;20887;-69
2023/02/20 05:05:49;;;;;;;3.10;1.90;;;8.40;98.00;;;;;;5071768;28;20550;-70
2023/02/20 05:08:17;;;;;;;1.77;1.50;;;8.40;98.00;;;;;;5071544;28;20455;-70
2023/02/20 05:10:44;;;;;;;2.37;1.80;;;8.40;98.00;;;;;;5071285;28;20456;-69
2023/02/20 05:13:11;;;;;;;1.80;1.50;;;8.30;98.00;;;;;;5071225;28;20484;-70
2023/02/20 05:15:38;;;;;;;4.00;1.80;;;8.30;98.00;;;;;;5071905;28;20464;-70
2023/02/20 05:18:07;;;;;;;3.97;2.00;;;8.30;98.00;;;;;;5071778;28;20525;-70
2023/02/20 05:23:18;;;;;;;1.77;1.77;;;8.30;98.00;;;;;;5071572;28;20933;-70
2023/02/20 05:25:45;;;;;;;3.27;1.63;;;8.40;98.00;;;;;;5071079;28;20452;-70
2023/02/20 05:28:13;;;;;;;3.07;1.90;;;8.40;98.00;;;;;;5072102;28;20446;-69
2023/02/20 05:30:40;;;;;;;3.10;1.80;;;8.40;98.00;;;;;;5071991;28;20461;-70
2023/02/20 05:33:09;;;;;;;2.73;1.97;;;8.30;98.00;;;;;;5072084;28;20484;-70
2023/02/20 05:35:38;;;;;;;1.77;1.30;;;8.30;98.00;;;;;;5071371;28;20456;-69
2023/02/20 05:38:05;;;;;;;4.57;2.60;;;8.30;98.00;;;;;;5071358;28;20550;-70
2023/02/20 05:40:33;;;;;;;5.87;1.73;;;8.20;98.00;;;;;;5071610;28;20457;-69
2023/02/20 05:43:01;;;;;;;3.17;2.03;;;8.20;98.00;;;;;;5071317;28;20458;-70
2023/02/20 05:45:28;;;;;;;1.60;1.40;;;8.20;98.00;;;;;;5071603;28;20476;-70
2023/02/20 05:47:55;;;;;;;2.13;1.40;;;8.20;98.00;;;;;;5071369;28;20521;-70
2023/02/20 05:50:24;;;;;;;1.60;1.53;;;8.20;98.00;;;;;;5071124;28;20490;-70
2023/02/20 05:52:51;;;;;;;3.10;2.13;;;8.10;98.00;;;;;;5071442;28;20467;-70
2023/02/20 05:55:18;;;;;;;2.13;1.70;;;8.10;98.00;;;;;;5071053;28;20460;-70
2023/02/20 05:57:46;;;;;;;1.80;1.53;;;8.10;98.00;;;;;;5071048;28;21063;-69
2023/02/20 06:00:14;;;;;;;3.53;2.37;;;8.10;98.00;;;;;;5069985;28;20909;-70
2023/02/20 06:02:41;;;;;;;1.90;1.33;;;8.00;98.00;;;;;;5071161;28;20667;-69
2023/02/20 06:05:08;;;;;;;3.43;1.90;;;8.00;98.00;;;;;;5071006;28;20459;-70
2023/02/20 06:07:37;;;;;;;2.97;1.70;;;8.00;98.00;;;;;;5070965;28;20463;-70
2023/02/20 06:10:04;;;;;;;7.13;2.13;;;8.10;98.00;;;;;;5071003;28;20519;-69
2023/02/20 06:12:32;;;;;;;3.50;1.80;;;8.00;98.00;;;;;;5070823;28;20890;-70
2023/02/20 06:14:59;;;;;;;2.43;1.70;;;8.10;98.00;;;;;;5070906;28;20482;-70
2023/02/20 06:17:28;;;;;;;3.70;2.10;;;8.00;98.00;;;;;;5070836;28;20460;-69
2023/02/20 06:19:55;;;;;;;3.33;1.70;;;8.00;98.00;;;;;;5070905;28;20490;-70
2023/02/20 06:22:22;;;;;;;3.10;1.70;;;8.00;98.00;;;;;;5071578;28;20453;-69
2023/02/20 06:24:51;;;;;;;5.17;1.70;;;8.00;98.00;;;;;;5075060;28;20487;-69
2023/02/20 06:27:18;;;;;;;2.10;1.60;;;8.00;98.00;;;;;;5074694;28;20452;-70
2023/02/20 06:29:47;;;;;;;1.70;1.33;;;8.00;98.00;;;;;;5073488;28;20977;-68
2023/02/20 06:32:18;;;;;;;2.23;1.53;;;8.00;98.00;;;;;;5074581;28;20462;-70
2023/02/20 06:34:46;;;;;;;3.47;2.00;;;8.00;98.00;;;;;;5073171;28;20546;-70
2023/02/20 06:37:16;;;;;;;7.37;1.83;;;8.00;98.00;;;;;;5074609;28;20454;-69
2023/02/20 06:39:46;;;;;;;2.80;1.60;;;7.90;98.00;;;;;;5074877;28;20500;-70
2023/02/20 06:42:15;;;;;;;5.70;1.70;;;7.90;98.00;;;;;;5074674;28;20469;-69
2023/02/20 06:44:42;;;;;;;2.40;1.67;;;8.00;98.00;;;;;;5074454;28;20448;-70
2023/02/20 06:47:09;;;;;;;3.13;1.73;;;8.00;98.00;;;;;;5074631;28;20488;-69
2023/02/20 06:49:37;;;;;;;3.30;2.10;;;8.00;98.00;;;;;;5074903;28;20827;-69
2023/02/20 06:52:05;;;;;;;5.00;1.60;;;8.00;98.00;;;;;;5057087;28;20452;-70
2023/02/20 06:54:33;;;;;;;2.70;1.70;;;8.10;98.00;;;;;;5074904;28;20479;-70
2023/02/20 06:57:01;;;;;;;6.90;1.83;;;8.10;98.00;;;;;;5074503;28;20448;-69
2023/02/20 06:59:29;;;;;;;3.07;1.80;;;8.10;98.00;;;;;;5074335;28;20515;-70
2023/02/20 07:01:56;;;;;;;5.90;2.87;;;8.10;98.00;;;;;;5074181;28;20447;-66
2023/02/20 07:04:26;;;;;;;2.57;1.70;;;8.10;98.00;;;;;;5074372;28;20470;-65
2023/02/20 07:06:53;;;;;;;6.20;2.63;;;8.10;98.00;;;;;;5074387;28;20455;-65
2023/02/20 07:09:20;;;;;;;1.63;1.50;;;8.10;98.00;;;;;;5074005;28;20456;-66
2023/02/20 07:11:49;;;;;;;2.90;1.93;;;8.00;98.00;;;;;;5074045;28;20460;-64
2023/02/20 07:14:16;;;;;;;3.87;2.07;;;8.00;98.00;;;;;;5074064;28;21015;-65
2023/02/20 07:16:47;;;;;;;3.83;2.27;;;7.90;98.00;;;;;;5074150;28;20464;-65
2023/02/20 07:19:15;;;;;;;4.83;1.67;;;7.90;98.00;;;;;;5074170;28;20469;-66
2023/02/20 07:21:42;;;;;;;3.23;2.10;;;7.80;98.00;;;;;;5073998;28;20517;-65
2023/02/20 07:24:10;;;;;;;3.60;2.07;;;8.00;98.00;;;;;;5073860;28;20528;-65
2023/02/20 07:26:38;;;;;;;2.70;1.60;;;8.10;98.00;;;;;;5056010;28;20522;-66
2023/02/20 07:29:06;;;;;;;3.57;1.87;;;8.10;98.00;;;;;;5072519;28;20515;-65
2023/02/20 07:31:34;;;;;;;4.27;1.90;;;8.20;98.00;;;;;;5073711;28;20999;-66
2023/02/20 07:34:02;;;;;;;3.23;1.70;;;8.20;98.00;;;;;;5073082;28;20492;-65
2023/02/20 07:36:29;;;;;;;11.57;1.90;;;8.20;98.00;;;;;;5073394;28;20459;-66
2023/02/20 07:38:58;;;;;;;6.20;1.90;;;8.30;98.00;;;;;;5073296;28;20454;-65
2023/02/20 07:41:28;;;;;;;2.13;1.40;;;8.30;98.00;;;;;;5073720;28;20495;-65
2023/02/20 07:43:55;;;;;;;2.13;2.00;;;8.30;98.00;;;;;;5072223;28;20450;-65
2023/02/20 07:46:22;;;;;;;5.00;1.60;;;8.30;98.00;;;;;;5073544;28;20519;-66
2023/02/20 07:48:52;;;;;;;6.60;2.00;;;8.50;98.00;;;;;;5073630;28;20479;-65
2023/02/20 07:51:20;;;;;;;3.77;1.90;;;8.50;98.00;;;;;;5073262;28;20892;-65
2023/02/20 07:53:49;;;;;;;1.77;1.40;;;8.50;98.00;;;;;;5073119;28;20487;-65
2023/02/20 07:56:16;;;;;;;4.57;2.00;;;8.60;98.00;;;;;;5073109;28;20558;-64
2023/02/20 07:58:44;;;;;;;3.50;1.60;;;8.70;98.00;;;;;;5055433;28;20460;-65
2023/02/20 08:01:11;;;;;;;2.83;1.80;;;8.70;98.00;;;;;;5073143;28;20460;-66
2023/02/20 08:03:38;;;;;;;1.60;1.27;;;8.60;98.00;;;;;;5072870;28;20456;-66
2023/02/20 08:06:07;;;;;;;2.70;1.60;;;8.70;98.00;;;;;;5073196;28;20459;-65
2023/02/20 08:08:35;;;;;;;2.47;1.77;;;8.70;98.00;;;;;;5073530;28;20467;-64
2023/02/20 08:11:02;;;;;;;3.40;1.93;;;8.80;98.00;;;;;;5073078;28;20456;-64
2023/02/20 08:13:30;;;;;;;2.80;2.37;;;8.80;98.00;;;;;;5072806;28;20465;-65
2023/02/20 08:15:58;;;;;;;3.17;2.10;;;8.80;98.00;;;;;;5072808;28;20960;-65
2023/02/20 08:18:25;;;;;;;3.10;1.60;;;8.90;98.00;;;;;;5072951;28;20491;-65
2023/02/20 08:20:52;;;;;;;3.00;1.73;;;9.00;98.00;;;;;;5072889;28;20463;-65
2023/02/20 08:23:21;;;;;;;2.47;1.60;;;9.00;98.00;;;;;;5072789;28;20456;-65
2023/02/20 08:25:50;;;;;;;2.77;1.50;;;9.10;98.00;;;;;;5072582;28;20455;-65
2023/02/20 08:28:19;;;;;;;2.40;1.67;;;9.20;98.00;;;;;;5072171;28;20600;-65
2023/02/20 08:30:46;;;;;;;2.60;1.70;;;9.30;98.00;;;;;;5072421;28;20467;-64
2023/02/20 08:33:14;;;;;;;4.53;2.00;;;9.50;98.00;;;;;;5070825;28;20963;-66
2023/02/20 08:35:47;;;;;;;2.77;1.70;;;9.60;98.00;;;;;;5072667;28;20482;-65
2023/02/20 08:38:27;;;;;;;2.23;1.90;;;9.70;98.00;;;;;;5072182;28;20965;-66
2023/02/20 08:40:56;;;;;;;3.20;1.80;;;9.70;98.00;;;;;;5072219;28;20469;-65
2023/02/20 08:43:23;;;;;;;3.77;2.40;;;9.80;98.00;;;;;;5072279;28;20449;-65
2023/02/20 08:45:51;;;;;;;1.77;1.50;;;9.80;98.00;;;;;;5066968;28;20974;-64
2023/02/20 08:48:18;;;;;;;2.13;1.70;;;9.90;98.00;;;;;;5060532;28;20457;-67
2023/02/20 08:50:46;;;;;;;3.40;2.17;;;9.90;98.00;;;;;;5072450;28;20893;-65
2023/02/20 08:53:13;;;;;;;2.20;1.70;;;9.90;98.00;;;;;;5072502;28;20454;-66
2023/02/20 08:55:40;;;;;;;3.63;1.73;;;10.00;98.00;;;;;;5071707;28;20481;-65
2023/02/20 08:58:10;;;;;;;5.33;2.20;;;10.10;98.00;;;;;;5072305;28;20950;-65
2023/02/20 09:00:37;;;;;;;2.27;1.73;;;10.10;98.00;;;;;;5072198;28;20540;-64
2023/02/20 09:03:07;;;;;;;8.33;2.30;;;10.30;98.00;;;;;;5072475;28;20922;-65
2023/02/20 09:05:35;;;;;;;8.87;2.50;;;10.30;98.00;;;;;;5072307;28;20527;-65
2023/02/20 09:08:04;;;;;;;4.60;1.67;;;10.40;98.00;;;;;;5059071;28;20454;-65
2023/02/20 09:10:33;;;;;;;2.83;1.90;;;10.40;98.00;;;;;;5051293;28;20468;-66
2023/02/20 09:13:01;;;;;;;3.63;2.20;;;10.50;98.00;;;;;;5052218;28;20986;-65
2023/02/20 09:15:34;;;;;;;5.10;1.80;;;10.60;98.00;;;;;;5052162;28;20486;-67
2023/02/20 09:18:01;;;;;;;2.30;2.00;;;10.70;98.00;;;;;;5057079;28;20454;-65
2023/02/20 09:20:29;;;;;;;2.67;2.00;;;10.90;98.00;;;;;;5051479;28;20519;-66
2023/02/20 09:22:59;;;;;;;2.17;1.53;;;10.90;98.00;;;;;;5083346;28;20464;-66
2023/02/20 09:25:26;;;;;;;4.73;1.83;;;10.90;98.00;;;;;;5053326;28;20881;-65
2023/02/20 09:27:53;;;;;;;2.00;1.70;;;10.90;98.00;;;;;;5051245;28;20731;-64
2023/02/20 09:30:21;;;;;;;3.37;1.90;;;11.00;98.00;;;;;;5051005;28;20836;-65
2023/02/20 09:32:50;;;;;;;7.70;2.00;;;11.10;98.00;;;;;;5051095;28;20953;-62
2023/02/20 09:35:19;;;;;;;2.57;1.60;;;11.20;98.00;;;;;;5051057;28;20487;-65
2023/02/20 09:37:46;;;;;;;3.40;2.00;;;11.30;98.00;;;;;;5051235;28;20469;-65
2023/02/20 09:40:15;;;;;;;1.93;1.60;;;11.40;98.00;;;;;;5051083;28;20868;-64
2023/02/20 09:42:51;;;;;;;2.57;1.80;;;11.50;98.00;;;;;;5050959;28;20491;-66
2023/02/20 09:45:22;;;;;;;5.93;1.70;;;11.70;98.00;;;;;;5051319;28;20460;-67
2023/02/20 09:48:14;;;;;;;3.00;1.63;;;11.80;98.00;;;;;;5051212;28;20459;-63
2023/02/20 09:50:45;;;;;;;1.67;1.40;;;11.90;98.00;;;;;;5051360;28;20464;-64
2023/02/20 09:53:22;;;;;;;2.40;1.83;;;12.00;98.00;;;;;;5051052;28;20459;-63
2023/02/20 09:55:50;;;;;;;3.60;2.20;;;12.10;98.00;;;;;;5051093;28;20497;-64
2023/02/20 09:58:26;;;;;;;2.90;1.80;;;12.40;98.00;;;;;;5050677;28;20460;-64
2023/02/20 10:00:56;;;;;;;4.40;1.60;;;12.60;98.00;;;;;;5050881;28;20458;-64
2023/02/20 10:03:33;;;;;;;3.20;1.77;;;12.50;98.00;;;;;;5051114;28;20522;-65
2023/02/20 10:06:03;;;;;;;2.47;1.83;;;12.70;98.00;;;;;;5050792;28;21027;-64
2023/02/20 10:08:31;;;;;;;1.50;1.40;;;12.70;98.00;;;;;;5051121;28;20511;-63
2023/02/20 10:11:06;;;;;;;1.70;1.60;;;12.90;98.00;;;;;;5060571;28;20501;-65
2023/02/20 10:13:50;;;;;;;1.80;1.40;;;13.10;98.00;;;;;;5070960;28;20851;-63
2023/02/20 10:16:27;;;;;;;7.80;2.00;;;13.00;98.00;;;;;;5070255;28;20496;-65
2023/02/20 10:19:08;;;;;;;4.67;1.80;;;12.90;98.00;;;;;;5070473;28;20464;-66
2023/02/20 10:21:49;;;;;;;2.50;1.80;;;12.90;98.00;;;;;;5070644;28;20462;-64
2023/02/20 10:24:30;;;;;;;5.50;1.70;;;12.80;98.00;;;;;;5070437;28;20826;-64
2023/02/20 10:27:06;;;;;;;1.57;1.40;;;12.90;98.00;;;;;;5070473;28;20486;-63
2023/02/20 10:29:36;;;;;;;3.40;1.90;;;13.00;98.00;;;;;;5070695;28;20463;-63
2023/02/20 10:32:10;;;;;;;4.97;1.93;;;13.00;98.00;;;;;;5067260;28;20456;-63
2023/02/20 10:34:42;;;;;;;7.20;1.90;;;12.90;98.00;;;;;;5070523;28;20486;-63
2023/02/20 10:37:15;;;;;;;3.90;1.67;;;13.00;98.00;;;;;;5070470;28;20462;-64
2023/02/20 10:39:50;;;;;;;3.00;1.80;;;13.00;98.00;;;;;;5070811;28;20448;-64
2023/02/20 10:42:23;;;;;;;3.63;2.03;;;13.10;98.00;;;;;;5069660;28;20513;-64
2023/02/20 10:44:56;;;;;;;2.90;1.57;;;13.30;98.00;;;;;;5070611;28;20464;-64
2023/02/20 10:47:30;;;;;;;2.27;1.90;;;13.40;98.00;;;;;;5070920;28;20457;-66
2023/02/20 10:50:03;;;;;;;3.20;1.77;;;13.60;98.00;;;;;;5064253;28;20480;-64
2023/02/20 10:52:36;;;;;;;2.37;1.67;;;13.80;98.00;;;;;;5059651;28;20458;-65
2023/02/20 10:55:09;;;;;;;2.80;1.90;;;13.70;98.00;;;;;;5057097;28;20483;-64
2023/02/20 10:57:40;;;;;;;3.60;1.73;;;13.70;98.00;;;;;;5069074;28;20456;-64
2023/02/20 11:00:13;;;;;;;2.13;1.60;;;13.80;98.00;;;;;;5050520;28;20465;-64
2023/02/20 11:02:43;;;;;;;2.80;2.03;;;13.90;98.00;;;;;;5050507;28;20465;-64
2023/02/20 11:05:16;;;;;;;1.90;1.70;;;13.90;98.00;;;;;;5050585;28;20471;-65
2023/02/20 11:07:43;;;;;;;3.63;1.80;;;14.00;98.00;;;;;;5050337;28;20453;-64
2023/02/20 11:10:11;;;;;;;2.13;1.47;;;13.90;98.00;;;;;;5052176;28;20471;-64
2023/02/20 11:12:44;;;;;;;1.90;1.70;;;14.00;98.00;;;;;;5054169;28;20457;-64
2023/02/20 11:15:14;;;;;;;2.73;1.63;;;14.20;98.00;;;;;;5054897;28;20488;-64
2023/02/20 11:17:42;;;;;;;5.10;1.73;;;14.30;98.00;;;;;;5053855;28;20459;-64
2023/02/20 11:20:40;;;;;;;4.80;1.70;;;14.50;98.00;;;;;;5054590;28;20463;-65
2023/02/20 11:23:09;;;;;;;1.60;1.47;;;14.70;98.00;;;;;;5054083;28;20464;-65
2023/02/20 11:25:37;;;;;;;2.40;1.60;;;14.80;98.00;;;;;;5084863;28;20456;-64
2023/02/20 11:28:11;;;;;;;2.13;1.80;;;14.90;98.00;;;;;;5053349;28;20447;-64
2023/02/20 11:30:42;;;;;;;2.43;1.80;;;15.20;98.00;;;;;;5053310;28;20514;-65
2023/02/20 11:33:15;;;;;;;2.50;2.10;;;15.60;97.90;;;;;;5053563;28;20463;-65
2023/02/20 11:35:45;;;;;;;7.00;1.70;;;16.00;96.50;;;;;;5053480;28;20499;-65
2023/02/20 11:38:32;;;;;;;4.13;1.90;;;16.10;95.50;;;;;;5053468;28;20451;-65
2023/02/20 11:41:22;;;;;;;2.90;1.90;;;16.40;95.30;;;;;;5053226;28;20472;-64
2023/02/20 11:44:07;;;;;;;1.77;1.60;;;16.70;96.00;;;;;;5054283;28;20485;-64
2023/02/20 11:46:34;;;;;;;3.67;1.90;;;17.20;94.40;;;;;;5053543;28;20869;-65
2023/02/20 11:49:04;;;;;;;2.70;1.80;;;17.50;92.90;;;;;;5085426;28;20966;-65
2023/02/20 11:51:35;;;;;;;4.07;2.37;;;17.50;91.90;;;;;;5053116;28;20966;-65
2023/02/20 11:54:14;;;;;;;2.53;1.80;;;17.60;92.20;;;;;;5053041;28;20469;-65
2023/02/20 11:56:58;;;;;;;2.00;1.90;;;17.80;92.60;;;;;;5053089;28;20568;-65
2023/02/20 11:59:35;;;;;;;3.37;1.53;;;17.90;91.50;;;;;;5053644;28;20943;-65
2023/02/20 12:02:27;;;;;;;2.40;1.70;;;17.70;89.50;;;;;;5072936;28;20875;-65
2023/02/20 12:05:07;;;;;;;1.90;1.50;;;17.60;90.70;;;;;;5072764;28;20530;-65
2023/02/20 12:07:38;;;;;;;6.00;2.00;;;17.70;90.00;;;;;;5072888;28;20452;-65
2023/02/20 12:10:19;;;;;;;3.10;1.93;;;17.90;89.20;;;;;;5072593;28;20468;-65
2023/02/20 12:12:47;;;;;;;5.53;1.70;;;18.10;90.10;;;;;;5072686;28;20461;-65
2023/02/20 12:15:15;;;;;;;2.40;1.60;;;18.30;89.20;;;;;;5071355;28;20492;-65
2023/02/20 12:18:01;;;;;;;1.60;1.50;;;18.60;88.20;;;;;;5072495;28;20460;-66
2023/02/20 12:20:31;;;;;;;1.60;1.50;;;18.80;87.30;;;;;;5072475;28;20822;-65
2023/02/20 12:23:20;;;;;;;2.47;1.67;;;18.70;86.70;;;;;;5072376;28;20947;-65
2023/02/20 12:25:58;;;;;;;1.90;1.47;;;18.80;87.50;;;;;;5072472;28;20449;-65
2023/02/20 12:28:35;;;;;;;2.50;1.73;;;19.10;86.70;;;;;;5072524;28;20807;-65
2023/02/20 12:31:13;;;;;;;4.40;2.07;;;19.00;86.70;;;;;;5072361;28;20464;-65
2023/02/20 12:33:50;;;;;;;3.93;1.80;;;19.00;86.70;;;;;;5072275;28;20448;-66
2023/02/20 12:36:32;;;;;;;2.83;1.83;;;19.00;86.90;;;;;;5072150;28;20488;-66
2023/02/20 12:39:07;;;;;;;7.17;1.60;;;19.00;87.40;;;;;;5072312;28;20457;-66
2023/02/20 12:41:50;;;;;;;5.33;1.87;;;18.80;86.10;;;;;;5072637;28;20872;-65
2023/02/20 12:44:41;;;;;;;5.10;1.80;;;18.90;86.90;;;;;;5072222;28;20449;-66
2023/02/20 12:47:22;;;;;;;1.87;1.60;;;19.20;85.60;;;;;;5071917;28;20503;-66
2023/02/20 12:50:01;;;;;;;2.10;1.57;;;19.10;85.40;;;;;;5071910;28;20457;-65
2023/02/20 12:52:52;;;;;;;2.30;1.70;;;19.10;86.30;;;;;;5071897;28;20461;-65
2023/02/20 12:55:29;;;;;;;2.50;1.70;;;19.30;85.80;;;;;;5071571;28;20993;-66
2023/02/20 12:58:10;;;;;;;3.80;1.63;;;19.60;85.00;;;;;;5071851;28;20460;-66
2023/02/20 13:00:41;;;;;;;2.03;1.60;;;20.00;84.30;;;;;;5071877;28;20457;-66
2023/02/20 13:03:14;;;;;;;2.93;1.90;;;20.40;83.80;;;;;;5071789;28;20952;-66
2023/02/20 13:05:44;;;;;;;2.20;1.80;;;20.60;82.10;;;;;;5072101;28;20465;-67
2023/02/20 13:08:15;;;;;;;3.73;1.80;;;20.80;82.30;;;;;;5072026;28;20456;-66
2023/02/20 13:10:52;;;;;;;3.20;2.10;;;20.70;81.90;;;;;;5071820;28;21162;-66
2023/02/20 13:13:20;;;;;;;3.03;2.00;;;20.70;81.50;;;;;;5071679;28;20457;-66
2023/02/20 13:15:54;;;;;;;4.30;2.00;;;20.70;81.80;;;;;;5070464;28;20476;-65
2023/02/20 13:18:28;;;;;;;3.23;1.93;;;20.70;83.00;;;;;;5071883;28;20453;-66
2023/02/20 13:20:57;;;;;;;2.70;1.60;;;20.80;81.30;;;;;;5071639;28;20457;-65
2023/02/20 13:23:31;;;;;;;2.17;1.60;;;20.90;82.40;;;;;;5071554;28;20468;-66
2023/02/20 13:26:00;;;;;;;3.33;2.00;;;21.20;82.40;;;;;;5071556;28;20460;-66
2023/02/20 13:28:44;;;;;;;2.57;1.90;;;21.10;80.70;;;;;;5071723;28;20601;-66
2023/02/20 13:31:23;;;;;;;1.80;1.60;;;21.00;81.00;;;;;;5071676;28;20456;-65